Time;durP1;ratioP1;P1;durP2;ratioP2;P2;SDS_P1;SDS_P2;PMS_P1;PMS_P2;Temp;Humidity;BMP_temperature;BMP_pressure;BME280_temperature;BME280_humidity;BME280_pressure;Samples;Min_cycle;Max_cycle;Signal;HPM_P1;HPM_P2
2024/03/08 00:00:32;;;;;;;22.77;15.18;;;3.70;99.90;;;;;;5062038;27;20208;-77
2024/03/08 00:03:00;;;;;;;23.30;15.15;;;3.80;99.90;;;;;;5027040;28;20535;-77
2024/03/08 00:05:28;;;;;;;20.90;13.77;;;3.80;99.90;;;;;;5026764;28;20223;-77
2024/03/08 00:07:54;;;;;;;21.25;15.35;;;3.70;99.90;;;;;;5041151;28;20215;-77
2024/03/08 00:10:21;;;;;;;21.85;16.40;;;3.80;99.90;;;;;;5032012;28;20300;-77
2024/03/08 00:12:48;;;;;;;20.88;15.20;;;3.70;99.90;;;;;;5028199;28;20216;-76
2024/03/08 00:15:17;;;;;;;22.90;15.90;;;3.70;99.90;;;;;;5033693;28;20211;-77
2024/03/08 00:17:46;;;;;;;25.05;14.77;;;3.70;99.80;;;;;;5048373;27;20212;-77
2024/03/08 00:20:13;;;;;;;24.95;15.98;;;3.60;99.80;;;;;;5027849;27;20205;-77
2024/03/08 00:22:40;;;;;;;19.75;14.18;;;3.70;99.80;;;;;;5025594;28;20215;-77
2024/03/08 00:25:08;;;;;;;23.05;14.52;;;3.70;99.90;;;;;;5021039;28;20726;-77
2024/03/08 00:27:35;;;;;;;23.95;14.93;;;3.70;99.80;;;;;;5033510;27;20636;-77
2024/03/08 00:30:02;;;;;;;21.83;13.23;;;3.70;99.90;;;;;;5087364;27;20204;-77
2024/03/08 00:32:29;;;;;;;20.17;13.80;;;3.70;99.90;;;;;;5017968;28;20224;-77
2024/03/08 00:34:57;;;;;;;25.80;16.38;;;3.50;99.90;;;;;;5026210;28;20209;-77
2024/03/08 00:37:24;;;;;;;20.83;16.00;;;3.60;99.80;;;;;;5028365;28;20290;-77
2024/03/08 00:39:52;;;;;;;20.45;14.30;;;3.60;99.70;;;;;;5070986;27;20209;-77
2024/03/08 00:42:19;;;;;;;25.45;16.17;;;3.60;99.80;;;;;;5029800;28;20221;-77
2024/03/08 00:44:46;;;;;;;23.05;14.25;;;3.50;99.80;;;;;;5018119;28;20861;-77
2024/03/08 00:47:13;;;;;;;24.45;16.00;;;3.40;99.80;;;;;;5030433;28;20224;-78
2024/03/08 00:49:42;;;;;;;19.38;13.48;;;3.40;99.90;;;;;;5021014;27;20200;-77
2024/03/08 00:52:10;;;;;;;23.95;15.63;;;3.40;99.90;;;;;;5026846;28;20573;-77
2024/03/08 00:54:37;;;;;;;22.58;13.40;;;3.40;99.90;;;;;;5034476;28;20229;-77
2024/03/08 00:57:04;;;;;;;20.85;14.40;;;3.40;99.90;;;;;;5034118;28;20197;-77
2024/03/08 00:59:32;;;;;;;19.50;13.68;;;3.30;99.90;;;;;;5034375;27;20294;-77
2024/03/08 01:02:00;;;;;;;23.05;15.40;;;3.30;99.90;;;;;;5031052;28;20204;-77
2024/03/08 01:04:28;;;;;;;20.15;15.43;;;3.30;99.90;;;;;;5019967;28;20284;-77
2024/03/08 01:06:56;;;;;;;18.48;14.10;;;3.30;99.90;;;;;;5021954;28;20210;-77
2024/03/08 01:09:24;;;;;;;20.80;15.20;;;3.40;99.80;;;;;;5076382;27;20285;-77
2024/03/08 01:11:51;;;;;;;20.80;14.00;;;3.30;99.90;;;;;;5007783;28;20217;-77
2024/03/08 01:14:17;;;;;;;19.95;15.00;;;3.30;99.80;;;;;;5033781;28;20524;-77
2024/03/08 01:16:44;;;;;;;21.50;14.45;;;3.10;99.80;;;;;;5032248;28;20638;-77
2024/03/08 01:19:11;;;;;;;22.52;13.10;;;3.20;99.90;;;;;;5014962;28;20235;-77
2024/03/08 01:21:38;;;;;;;21.08;14.25;;;3.20;99.90;;;;;;5106042;27;20252;-77
2024/03/08 01:24:05;;;;;;;26.70;15.70;;;3.10;99.90;;;;;;5026600;28;20287;-77
2024/03/08 01:26:35;;;;;;;20.27;13.80;;;3.20;99.90;;;;;;5018993;28;20288;-77
2024/03/08 01:29:02;;;;;;;26.42;15.70;;;3.10;99.90;;;;;;5031840;28;20217;-77
2024/03/08 01:31:29;;;;;;;23.08;15.20;;;3.10;99.90;;;;;;5104946;27;20295;-77
2024/03/08 01:33:56;;;;;;;22.83;14.60;;;3.10;99.90;;;;;;5025693;28;20609;-77
2024/03/08 01:36:24;;;;;;;22.55;14.70;;;3.10;99.90;;;;;;5018176;28;20543;-77
2024/03/08 01:38:51;;;;;;;23.20;13.75;;;3.00;99.90;;;;;;5028605;28;20641;-77
2024/03/08 01:41:18;;;;;;;20.30;13.43;;;3.00;99.90;;;;;;5029252;28;20206;-77
2024/03/08 01:43:46;;;;;;;20.25;14.07;;;3.00;99.90;;;;;;5033688;28;20211;-77
2024/03/08 01:46:17;;;;;;;21.65;15.25;;;3.00;99.90;;;;;;5026362;28;20202;-77
2024/03/08 01:48:44;;;;;;;19.38;12.35;;;3.00;99.90;;;;;;5042259;28;20264;-77
2024/03/08 01:51:12;;;;;;;20.88;13.68;;;3.00;99.90;;;;;;5040993;27;20447;-77
2024/03/08 01:53:39;;;;;;;21.25;14.07;;;2.90;99.90;;;;;;5021879;28;20204;-77
2024/03/08 01:56:08;;;;;;;21.20;13.93;;;2.90;99.90;;;;;;5034139;28;20205;-77
2024/03/08 01:58:36;;;;;;;22.92;14.48;;;2.90;99.90;;;;;;5091384;27;20223;-75
2024/03/08 02:01:05;;;;;;;22.10;13.70;;;3.00;99.90;;;;;;5062823;27;20214;-77
2024/03/08 02:03:32;;;;;;;20.40;13.82;;;2.90;99.90;;;;;;5017564;28;20203;-77
2024/03/08 02:05:59;;;;;;;18.33;13.18;;;2.90;99.90;;;;;;5027183;28;20225;-77
2024/03/08 02:08:26;;;;;;;23.67;14.25;;;2.90;99.90;;;;;;5019815;28;20234;-77
2024/03/08 02:10:54;;;;;;;18.60;13.38;;;2.90;99.90;;;;;;5033472;27;20207;-77
2024/03/08 02:13:22;;;;;;;19.60;12.48;;;2.80;99.90;;;;;;5026397;28;20244;-76
2024/03/08 02:15:54;;;;;;;18.00;12.10;;;2.80;99.90;;;;;;5015784;28;20203;-77
2024/03/08 02:18:24;;;;;;;18.10;12.95;;;2.70;99.90;;;;;;5012515;28;20630;-77
2024/03/08 02:20:53;;;;;;;16.67;11.98;;;2.70;99.90;;;;;;5012301;28;20227;-77
2024/03/08 02:23:20;;;;;;;18.98;14.57;;;2.70;99.90;;;;;;5031642;27;20234;-77
2024/03/08 02:25:47;;;;;;;19.85;12.55;;;2.70;99.90;;;;;;5036663;28;20196;-76
2024/03/08 02:28:14;;;;;;;17.35;12.55;;;2.80;99.90;;;;;;5026040;28;20242;-77
2024/03/08 02:30:41;;;;;;;18.67;12.60;;;2.70;99.90;;;;;;5022886;28;20213;-77
2024/03/08 02:33:10;;;;;;;18.50;13.13;;;2.70;99.50;;;;;;5031280;27;20296;-77
2024/03/08 02:35:37;;;;;;;18.30;11.98;;;2.70;99.70;;;;;;5031650;28;20201;-76
2024/03/08 02:38:06;;;;;;;18.48;12.55;;;2.60;99.60;;;;;;5042844;28;20288;-77
2024/03/08 02:40:33;;;;;;;23.08;13.25;;;2.60;99.70;;;;;;5031587;28;20708;-77
2024/03/08 02:43:00;;;;;;;19.20;14.43;;;2.60;99.80;;;;;;5028496;28;20198;-77
2024/03/08 02:45:29;;;;;;;17.77;12.32;;;2.60;99.70;;;;;;5031707;28;20206;-76
2024/03/08 02:47:57;;;;;;;19.73;12.68;;;2.50;99.70;;;;;;5048594;28;20225;-77
2024/03/08 02:50:25;;;;;;;20.13;12.55;;;2.50;99.80;;;;;;5031684;28;20205;-76
2024/03/08 02:52:53;;;;;;;15.55;12.02;;;2.50;99.90;;;;;;5032227;27;20730;-76
2024/03/08 02:55:22;;;;;;;17.02;12.50;;;2.50;99.70;;;;;;5032608;28;20209;-76
2024/03/08 02:57:49;;;;;;;17.75;12.77;;;2.60;99.80;;;;;;5027489;28;20193;-77
2024/03/08 03:00:16;;;;;;;21.35;13.23;;;2.50;99.60;;;;;;5017540;28;20214;-77
2024/03/08 03:02:43;;;;;;;21.42;13.15;;;2.50;99.60;;;;;;5036850;27;20198;-76
2024/03/08 03:05:11;;;;;;;22.40;13.15;;;2.40;99.70;;;;;;5039119;28;20206;-77
2024/03/08 03:07:38;;;;;;;23.95;14.63;;;2.40;99.80;;;;;;5038285;28;20316;-76
2024/03/08 03:10:06;;;;;;;15.90;13.18;;;2.50;99.70;;;;;;5025380;28;20208;-77
2024/03/08 03:12:35;;;;;;;18.58;11.93;;;2.50;99.80;;;;;;5084581;27;20730;-76
2024/03/08 03:15:01;;;;;;;20.70;12.55;;;2.40;99.70;;;;;;5021294;27;20255;-77
2024/03/08 03:17:29;;;;;;;22.95;13.10;;;2.30;99.70;;;;;;5042503;28;20673;-77
2024/03/08 03:19:56;;;;;;;16.83;11.82;;;2.40;99.90;;;;;;5045253;27;20186;-77
2024/03/08 03:22:23;;;;;;;18.90;13.10;;;2.30;99.80;;;;;;5016200;28;20513;-77
2024/03/08 03:24:51;;;;;;;17.63;10.48;;;2.30;99.90;;;;;;5026060;28;20201;-76
2024/03/08 03:27:20;;;;;;;18.13;12.75;;;2.30;99.90;;;;;;5032353;28;20215;-77
2024/03/08 03:29:50;;;;;;;17.83;11.70;;;2.30;99.90;;;;;;5033660;28;20233;-76
2024/03/08 03:32:18;;;;;;;21.40;13.63;;;2.20;99.90;;;;;;5044585;27;20212;-77
2024/03/08 03:34:45;;;;;;;21.63;12.68;;;2.30;99.90;;;;;;5022748;28;20225;-77
2024/03/08 03:37:13;;;;;;;18.55;13.13;;;2.20;99.90;;;;;;5023140;28;20209;-77
2024/03/08 03:39:48;;;;;;;16.90;12.80;;;2.20;99.90;;;;;;5023520;28;20226;-76
2024/03/08 03:42:17;;;;;;;16.98;12.88;;;2.30;99.90;;;;;;5038987;27;20193;-77
2024/03/08 03:44:45;;;;;;;19.77;13.77;;;2.20;99.90;;;;;;5030874;28;20198;-77
2024/03/08 03:47:15;;;;;;;22.85;12.52;;;2.10;99.90;;;;;;5030470;28;20204;-76
2024/03/08 03:49:42;;;;;;;18.42;12.13;;;2.10;99.90;;;;;;5030219;28;20644;-77
2024/03/08 03:52:10;;;;;;;19.80;13.20;;;2.10;99.90;;;;;;5030672;27;20201;-76
2024/03/08 03:54:39;;;;;;;17.33;13.23;;;2.10;99.90;;;;;;5011336;28;20305;-77
2024/03/08 03:57:07;;;;;;;19.70;13.30;;;2.20;99.90;;;;;;5031909;28;20605;-76
2024/03/08 03:59:36;;;;;;;20.10;12.80;;;2.20;99.90;;;;;;5038135;28;20729;-77
2024/03/08 04:02:03;;;;;;;19.95;13.52;;;2.10;99.90;;;;;;5036772;27;20207;-76
2024/03/08 04:04:33;;;;;;;19.00;13.13;;;2.10;99.90;;;;;;5076160;27;20202;-77
2024/03/08 04:06:59;;;;;;;19.85;13.45;;;2.10;99.90;;;;;;5027479;28;20216;-76
2024/03/08 04:09:25;;;;;;;21.35;13.77;;;2.00;99.90;;;;;;5027395;28;20220;-77
2024/03/08 04:11:55;;;;;;;18.20;12.47;;;2.10;99.90;;;;;;5040985;28;20668;-77
2024/03/08 04:14:22;;;;;;;19.08;13.13;;;2.00;99.90;;;;;;5044091;27;20208;-76
2024/03/08 04:16:49;;;;;;;22.10;13.38;;;2.00;99.90;;;;;;5097192;27;20615;-76
2024/03/08 04:19:16;;;;;;;21.23;13.95;;;2.00;99.90;;;;;;5027531;28;20233;-77
2024/03/08 04:21:44;;;;;;;21.83;13.15;;;2.00;99.90;;;;;;5027301;28;20253;-76
2024/03/08 04:24:11;;;;;;;18.55;13.15;;;1.90;99.90;;;;;;5041912;28;20213;-77
2024/03/08 04:26:38;;;;;;;17.83;13.88;;;1.90;99.90;;;;;;5035227;28;20696;-76
2024/03/08 04:29:04;;;;;;;16.33;12.80;;;1.90;99.90;;;;;;5029462;28;20224;-77
2024/03/08 04:31:31;;;;;;;17.17;12.45;;;2.00;99.90;;;;;;5061540;27;20203;-76
2024/03/08 04:33:58;;;;;;;17.75;13.77;;;2.10;99.90;;;;;;5096551;27;20212;-76
2024/03/08 04:36:26;;;;;;;18.73;12.93;;;2.00;99.90;;;;;;5014573;28;20201;-77
2024/03/08 04:38:54;;;;;;;18.98;12.68;;;1.90;99.90;;;;;;5028128;28;20197;-77
2024/03/08 04:41:23;;;;;;;17.50;13.60;;;1.90;99.90;;;;;;5029754;28;20726;-77
2024/03/08 04:43:50;;;;;;;22.33;13.63;;;1.90;99.90;;;;;;5074810;27;20198;-76
2024/03/08 04:46:17;;;;;;;25.00;14.88;;;2.00;99.90;;;;;;5022846;28;20254;-77
2024/03/08 04:48:43;;;;;;;22.20;13.80;;;1.90;99.90;;;;;;5027798;28;20228;-76
2024/03/08 04:51:11;;;;;;;20.00;13.18;;;1.80;99.90;;;;;;5021369;28;20214;-77
2024/03/08 04:53:37;;;;;;;21.35;13.45;;;1.60;99.90;;;;;;5101858;27;20523;-76
2024/03/08 04:56:07;;;;;;;21.23;13.77;;;1.80;99.90;;;;;;5083292;27;20674;-77
2024/03/08 04:58:34;;;;;;;29.77;15.63;;;1.80;99.90;;;;;;5030421;28;20198;-76
2024/03/08 05:01:01;;;;;;;22.08;15.52;;;1.80;99.90;;;;;;5025255;28;20205;-77
2024/03/08 05:03:28;;;;;;;21.70;13.85;;;1.90;99.90;;;;;;5031198;28;20645;-77
2024/03/08 05:05:56;;;;;;;20.70;15.05;;;1.80;99.90;;;;;;5040154;28;20588;-77
2024/03/08 05:08:22;;;;;;;24.83;14.35;;;1.80;99.90;;;;;;5028874;28;20245;-77
2024/03/08 05:10:49;;;;;;;18.02;13.75;;;1.80;99.90;;;;;;5032077;28;20475;-77
2024/03/08 05:13:18;;;;;;;19.02;14.27;;;1.80;99.90;;;;;;5029505;28;20204;-77
2024/03/08 05:15:49;;;;;;;22.50;13.82;;;1.80;99.90;;;;;;5073488;27;20200;-77
2024/03/08 05:18:16;;;;;;;20.30;14.38;;;1.80;99.90;;;;;;5070366;27;20225;-77
2024/03/08 05:20:43;;;;;;;20.05;15.05;;;1.70;99.90;;;;;;5035458;27;20219;-77
2024/03/08 05:23:10;;;;;;;19.08;14.65;;;1.80;99.90;;;;;;5035680;28;20216;-77
2024/03/08 05:25:36;;;;;;;23.33;14.85;;;1.70;99.90;;;;;;5021805;28;20239;-77
2024/03/08 05:28:04;;;;;;;22.30;16.55;;;1.70;99.90;;;;;;5049842;27;20206;-77
2024/03/08 05:30:32;;;;;;;25.85;16.05;;;1.70;99.90;;;;;;5025755;28;20227;-77
2024/03/08 05:32:59;;;;;;;21.40;14.43;;;1.80;99.90;;;;;;5035861;27;20712;-77
2024/03/08 05:35:26;;;;;;;25.08;15.98;;;1.70;99.90;;;;;;5025155;28;20202;-79
2024/03/08 05:37:53;;;;;;;22.73;15.38;;;1.70;99.90;;;;;;5024027;28;20209;-81
2024/03/08 05:40:20;;;;;;;25.38;15.20;;;1.60;99.90;;;;;;5025848;28;20206;-80
2024/03/08 05:42:47;;;;;;;21.27;14.82;;;1.60;99.90;;;;;;5025060;28;20284;-81
2024/03/08 05:45:15;;;;;;;24.38;14.77;;;1.70;99.90;;;;;;5026709;28;20216;-81
2024/03/08 05:47:43;;;;;;;26.55;15.55;;;1.70;99.90;;;;;;5026027;28;20478;-81
2024/03/08 05:50:11;;;;;;;18.98;11.85;;;1.70;99.90;;;;;;5022191;28;20228;-80
2024/03/08 05:52:38;;;;;;;23.98;16.02;;;1.70;99.90;;;;;;5056637;28;20254;-81
2024/03/08 05:55:07;;;;;;;23.02;15.75;;;1.70;99.90;;;;;;5047507;28;20208;-80
2024/03/08 05:57:34;;;;;;;23.15;14.40;;;1.60;99.90;;;;;;5050168;28;20253;-81
2024/03/08 06:00:00;;;;;;;23.63;15.35;;;1.70;99.90;;;;;;5032219;28;20197;-80
2024/03/08 06:02:27;;;;;;;22.02;14.02;;;1.70;99.90;;;;;;5050775;28;20218;-80
2024/03/08 06:04:58;;;;;;;28.30;15.90;;;1.60;99.90;;;;;;5046439;28;20248;-77
2024/03/08 06:07:25;;;;;;;23.20;16.08;;;1.70;99.90;;;;;;5042401;28;20201;-78
2024/03/08 06:09:52;;;;;;;26.95;15.30;;;1.80;99.90;;;;;;5044381;28;20213;-78
2024/03/08 06:12:19;;;;;;;19.23;13.90;;;1.70;99.90;;;;;;5041080;28;20213;-78
2024/03/08 06:14:46;;;;;;;20.35;14.65;;;1.70;99.90;;;;;;5042988;28;20205;-78
2024/03/08 06:17:13;;;;;;;25.95;16.13;;;1.70;99.90;;;;;;5025073;28;20562;-80
2024/03/08 06:19:39;;;;;;;26.95;16.85;;;1.70;99.90;;;;;;5023738;28;20208;-79
2024/03/08 06:22:09;;;;;;;21.88;14.75;;;1.70;99.90;;;;;;5031206;28;20209;-76
2024/03/08 06:24:38;;;;;;;22.33;15.50;;;1.80;99.90;;;;;;5064567;28;20208;-79
2024/03/08 06:27:05;;;;;;;21.00;13.35;;;2.40;99.90;;;;;;5030396;28;20673;-77
2024/03/08 06:29:32;;;;;;;23.85;15.38;;;1.80;99.90;;;;;;5018682;28;20516;-78
2024/03/08 06:32:00;;;;;;;22.35;15.18;;;1.90;99.90;;;;;;5029166;28;20205;-78
2024/03/08 06:34:26;;;;;;;17.33;13.38;;;1.90;99.90;;;;;;5061789;28;20614;-78
2024/03/08 06:37:00;;;;;;;19.83;14.60;;;1.90;99.90;;;;;;5032194;28;20695;-78
2024/03/08 06:39:31;;;;;;;21.45;14.00;;;2.00;99.90;;;;;;5022457;28;20697;-78
2024/03/08 06:41:58;;;;;;;21.58;14.45;;;2.00;99.90;;;;;;5029803;28;20296;-78
2024/03/08 06:44:25;;;;;;;20.65;12.65;;;2.20;99.90;;;;;;5031471;27;20205;-78
2024/03/08 06:46:52;;;;;;;22.52;15.30;;;2.00;99.90;;;;;;5028399;28;20559;-78
2024/03/08 06:49:19;;;;;;;22.95;15.70;;;2.10;99.90;;;;;;5034052;28;20224;-78
2024/03/08 06:51:46;;;;;;;23.13;15.63;;;2.10;99.90;;;;;;5028474;28;20201;-77
2024/03/08 06:54:13;;;;;;;22.42;14.45;;;2.30;99.90;;;;;;5061330;27;20661;-78
2024/03/08 06:56:41;;;;;;;20.67;14.38;;;2.20;99.90;;;;;;5030406;28;20247;-79
2024/03/08 06:59:10;;;;;;;24.55;15.82;;;2.20;99.90;;;;;;5027435;28;20202;-78
2024/03/08 07:01:38;;;;;;;22.63;14.80;;;2.30;99.90;;;;;;5029592;28;20218;-78
2024/03/08 07:04:06;;;;;;;25.85;15.75;;;2.40;99.90;;;;;;5029556;27;20210;-77
2024/03/08 07:06:34;;;;;;;19.58;15.00;;;2.20;99.90;;;;;;5036750;27;20207;-77
2024/03/08 07:09:01;;;;;;;19.20;13.38;;;2.30;99.90;;;;;;5048933;27;20223;-77
2024/03/08 07:11:28;;;;;;;20.98;13.70;;;2.30;99.90;;;;;;5027660;28;20527;-77
2024/03/08 07:14:24;;;;;;;21.52;15.32;;;2.40;99.90;;;;;;5054346;27;20210;-79
2024/03/08 07:20:49;;;;;;;20.83;14.10;;;2.60;99.90;;;;;;5021479;27;20406;-79
2024/03/08 07:23:46;;;;;;;20.90;13.38;;;3.10;99.90;;;;;;5035904;27;20710;-78
2024/03/08 07:26:04;;;;;;;24.10;14.15;;;2.80;99.90;;;;;;5028355;28;20221;-78
2024/03/08 07:28:31;;;;;;;29.15;14.68;;;2.80;99.90;;;;;;5043778;27;20715;-78
2024/03/08 07:31:16;;;;;;;25.90;14.68;;;2.80;99.90;;;;;;5032023;28;20324;-78
2024/03/08 07:33:44;;;;;;;21.92;15.65;;;2.80;99.90;;;;;;5037276;28;20216;-78
2024/03/08 07:36:10;;;;;;;22.80;14.32;;;2.90;99.90;;;;;;5032864;28;20210;-78
2024/03/08 07:38:37;;;;;;;26.98;14.85;;;2.90;99.90;;;;;;5032812;28;20289;-78
2024/03/08 07:41:04;;;;;;;25.25;15.73;;;2.70;99.90;;;;;;5029571;28;20208;-78
2024/03/08 07:43:32;;;;;;;23.20;15.98;;;3.00;99.90;;;;;;5024716;28;20234;-80
2024/03/08 07:46:03;;;;;;;22.15;14.82;;;3.00;99.90;;;;;;5026326;28;20295;-80
2024/03/08 07:48:36;;;;;;;21.77;13.98;;;3.20;99.90;;;;;;5029928;28;20285;-80
2024/03/08 07:51:03;;;;;;;25.77;17.45;;;3.20;99.80;;;;;;5029145;28;20226;-80
2024/03/08 07:53:30;;;;;;;23.40;15.60;;;3.20;99.90;;;;;;5028886;28;20246;-79
2024/03/08 07:55:57;;;;;;;24.35;14.85;;;3.20;99.80;;;;;;5031612;28;20277;-81
2024/03/08 07:58:24;;;;;;;20.50;15.40;;;3.20;99.90;;;;;;5029258;28;20299;-81
2024/03/08 08:00:50;;;;;;;22.48;15.20;;;3.30;99.90;;;;;;5027791;28;20296;-80
2024/03/08 08:03:22;;;;;;;22.45;15.40;;;3.40;99.90;;;;;;5026720;28;20204;-80
2024/03/08 08:05:49;;;;;;;24.77;16.92;;;3.60;99.90;;;;;;5025963;28;20215;-80
2024/03/08 08:08:15;;;;;;;24.98;16.05;;;3.60;99.50;;;;;;5027581;28;20209;-80
2024/03/08 08:10:42;;;;;;;27.00;15.43;;;3.50;99.40;;;;;;5031335;28;20747;-80
2024/03/08 08:13:09;;;;;;;21.33;14.65;;;3.70;99.50;;;;;;5031622;28;20298;-80
2024/03/08 08:15:36;;;;;;;23.45;14.75;;;3.60;99.30;;;;;;5022577;28;20208;-81
2024/03/08 08:18:05;;;;;;;19.67;13.82;;;3.60;99.30;;;;;;5037614;27;20213;-80
2024/03/08 08:20:33;;;;;;;22.80;15.10;;;3.70;99.00;;;;;;5034076;28;20238;-80
2024/03/08 08:23:00;;;;;;;17.90;13.50;;;3.60;98.30;;;;;;5038113;27;20206;-79
2024/03/08 08:25:27;;;;;;;24.17;15.80;;;3.60;98.60;;;;;;5047132;27;20294;-78
2024/03/08 08:30:55;;;;;;;23.45;15.93;;;3.60;99.30;;;;;;5044443;27;20701;-82
2024/03/08 08:33:22;;;;;;;22.63;14.05;;;3.70;99.10;;;;;;5034236;27;20251;-79
2024/03/08 08:35:53;;;;;;;19.77;13.85;;;3.80;98.70;;;;;;5045720;27;20286;-80
2024/03/08 08:38:21;;;;;;;24.67;15.35;;;3.80;98.60;;;;;;5065518;27;20256;-79
2024/03/08 08:40:47;;;;;;;21.35;14.32;;;3.80;98.70;;;;;;5063454;27;20208;-78
2024/03/08 08:43:14;;;;;;;19.92;13.85;;;3.90;98.70;;;;;;5057968;27;20208;-79
2024/03/08 08:45:42;;;;;;;20.77;15.13;;;4.00;98.50;;;;;;5046828;27;20208;-80
2024/03/08 08:48:10;;;;;;;19.50;12.90;;;3.90;98.10;;;;;;5054668;27;20217;-79
2024/03/08 08:50:37;;;;;;;18.85;13.57;;;4.00;98.10;;;;;;5026981;27;20232;-80
2024/03/08 08:53:06;;;;;;;18.48;12.15;;;3.90;98.20;;;;;;5028582;27;20408;-80
2024/03/08 08:55:35;;;;;;;19.60;13.25;;;4.10;98.20;;;;;;5062229;27;20214;-80
2024/03/08 08:58:03;;;;;;;18.25;14.27;;;4.00;98.30;;;;;;5063294;27;20214;-79
2024/03/08 09:00:30;;;;;;;21.80;13.57;;;4.00;98.40;;;;;;5062553;27;20226;-79
2024/03/08 09:02:58;;;;;;;19.13;12.93;;;4.00;98.40;;;;;;5060471;27;20594;-81
2024/03/08 09:05:26;;;;;;;19.63;13.80;;;4.10;98.10;;;;;;5059708;27;20207;-80
2024/03/08 09:07:53;;;;;;;18.27;12.43;;;4.00;98.00;;;;;;5027162;27;20205;-80
2024/03/08 09:10:22;;;;;;;18.02;12.25;;;4.00;98.10;;;;;;5053966;27;20316;-79
2024/03/08 09:12:50;;;;;;;18.85;12.98;;;4.10;98.00;;;;;;5031901;27;20215;-79
2024/03/08 09:15:22;;;;;;;17.55;12.50;;;4.20;97.90;;;;;;5039996;27;20288;-83
2024/03/08 09:17:50;;;;;;;19.10;13.52;;;4.20;97.70;;;;;;5071110;27;20208;-79
2024/03/08 09:20:17;;;;;;;23.85;16.02;;;4.20;97.70;;;;;;5056273;27;20651;-80
2024/03/08 09:22:47;;;;;;;20.35;13.43;;;4.20;97.50;;;;;;5049086;27;20554;-79
2024/03/08 09:25:14;;;;;;;19.30;14.05;;;4.00;99.90;;;;;;5052556;27;20208;-79
2024/03/08 09:27:46;;;;;;;18.80;13.68;;;4.00;97.90;;;;;;5061780;27;20213;-81
2024/03/08 09:30:14;;;;;;;18.63;13.40;;;4.10;98.30;;;;;;5056560;27;20594;-80
2024/03/08 09:32:43;;;;;;;19.45;14.32;;;4.10;98.30;;;;;;5072035;27;20216;-79
2024/03/08 09:35:10;;;;;;;18.75;12.48;;;4.30;97.90;;;;;;5084196;27;20212;-81
2024/03/08 09:37:37;;;;;;;22.73;14.38;;;4.40;97.70;;;;;;5090159;27;20266;-80
2024/03/08 09:40:09;;;;;;;19.20;12.43;;;4.30;97.70;;;;;;5076809;27;20200;-79
2024/03/08 09:42:37;;;;;;;20.00;14.73;;;4.30;97.50;;;;;;5064356;27;20273;-80
2024/03/08 09:45:10;;;;;;;19.42;13.82;;;4.30;97.50;;;;;;5090374;27;20564;-79
2024/03/08 09:47:40;;;;;;;18.77;13.25;;;4.40;97.80;;;;;;5060219;27;20257;-80
2024/03/08 09:50:09;;;;;;;17.48;13.40;;;4.50;97.70;;;;;;5048132;27;20221;-79
2024/03/08 09:52:37;;;;;;;19.45;13.43;;;4.40;97.80;;;;;;5032639;28;20566;-79
2024/03/08 09:55:06;;;;;;;25.85;15.25;;;4.50;97.80;;;;;;5034490;28;20231;-79
2024/03/08 09:57:33;;;;;;;21.73;14.60;;;4.60;97.80;;;;;;5036081;28;20200;-80
2024/03/08 10:00:00;;;;;;;19.50;13.70;;;4.60;97.90;;;;;;5041291;28;20207;-80
2024/03/08 10:02:28;;;;;;;16.90;13.77;;;4.60;97.90;;;;;;5040558;28;20303;-79
2024/03/08 10:04:55;;;;;;;19.83;14.57;;;4.60;98.10;;;;;;5066171;28;20204;-80
2024/03/08 10:07:22;;;;;;;21.38;14.55;;;4.80;97.70;;;;;;5046637;28;20476;-79
2024/03/08 10:09:50;;;;;;;19.05;11.80;;;4.90;97.50;;;;;;5045471;27;20562;-80
2024/03/08 10:12:19;;;;;;;20.13;12.25;;;4.80;97.50;;;;;;5048010;27;20200;-80
2024/03/08 10:14:46;;;;;;;16.27;11.45;;;5.00;97.60;;;;;;5041317;27;20638;-80
2024/03/08 10:17:13;;;;;;;18.92;12.50;;;5.00;97.50;;;;;;5024981;28;20232;-79
2024/03/08 10:19:51;;;;;;;20.33;12.63;;;5.00;97.40;;;;;;5040163;27;20200;-80
2024/03/08 10:22:18;;;;;;;16.77;12.63;;;5.00;97.40;;;;;;5036160;27;20214;-81
2024/03/08 10:24:46;;;;;;;22.63;13.70;;;5.10;96.80;;;;;;5036850;27;20307;-80
2024/03/08 10:27:13;;;;;;;16.02;11.82;;;5.10;96.70;;;;;;5032857;27;20614;-80
2024/03/08 10:29:44;;;;;;;16.83;11.77;;;5.10;96.70;;;;;;5038870;27;20224;-80
2024/03/08 10:32:11;;;;;;;17.40;13.15;;;5.10;96.90;;;;;;5027775;27;20211;-81
2024/03/08 10:34:38;;;;;;;18.80;13.00;;;5.00;98.00;;;;;;5033208;27;20200;-79
2024/03/08 10:37:10;;;;;;;21.00;14.35;;;5.20;96.80;;;;;;5031624;28;20223;-79
2024/03/08 10:39:38;;;;;;;15.57;12.93;;;5.30;96.50;;;;;;5031726;27;20658;-81
2024/03/08 10:42:06;;;;;;;19.63;13.02;;;5.30;96.40;;;;;;5041286;27;20439;-80
2024/03/08 10:44:54;;;;;;;16.00;11.52;;;5.30;96.60;;;;;;5042643;27;20666;-80
2024/03/08 10:47:30;;;;;;;18.95;12.40;;;5.40;96.40;;;;;;5029389;28;20212;-81
2024/03/08 10:50:07;;;;;;;20.02;14.27;;;5.40;96.40;;;;;;5051240;27;20224;-79
2024/03/08 10:52:36;;;;;;;16.67;11.80;;;5.50;96.50;;;;;;5023757;27;20652;-79
2024/03/08 10:55:04;;;;;;;18.85;12.60;;;5.60;96.30;;;;;;5047114;27;20237;-80
2024/03/08 10:57:32;;;;;;;16.90;12.95;;;5.70;96.00;;;;;;5029330;28;20564;-79
2024/03/08 10:59:59;;;;;;;18.58;13.30;;;5.60;96.20;;;;;;5032618;27;20205;-80
2024/03/08 11:02:28;;;;;;;16.38;11.65;;;5.80;96.40;;;;;;5037034;27;20205;-80
2024/03/08 11:04:56;;;;;;;18.70;13.13;;;5.80;96.10;;;;;;5047097;27;20212;-81
2024/03/08 11:07:27;;;;;;;17.20;12.65;;;5.90;95.80;;;;;;5039712;27;20201;-87
2024/03/08 11:09:57;;;;;;;18.23;12.80;;;6.10;95.50;;;;;;5057292;27;20205;-81
2024/03/08 11:15:18;;;;;;;19.05;12.35;;;6.20;95.50;;;;;;5040022;27;20567;-79
2024/03/08 11:17:49;;;;;;;17.05;12.80;;;6.10;95.30;;;;;;5078325;27;20231;-80
2024/03/08 11:20:20;;;;;;;16.50;13.23;;;6.20;95.90;;;;;;5055176;27;20203;-80
2024/03/08 11:22:52;;;;;;;21.37;14.07;;;6.20;95.80;;;;;;5072412;27;20715;-84
2024/03/08 11:25:40;;;;;;;18.30;12.40;;;6.60;95.30;;;;;;5038577;27;20635;-83
2024/03/08 11:28:17;;;;;;;19.80;13.00;;;6.60;94.80;;;;;;5043192;27;20204;-82
2024/03/08 11:30:46;;;;;;;15.83;12.43;;;6.40;94.60;;;;;;5042103;27;20678;-80
2024/03/08 11:33:14;;;;;;;16.17;12.90;;;6.70;94.90;;;;;;5047219;27;21440;-83
2024/03/08 11:35:45;;;;;;;17.93;12.53;;;6.60;95.10;;;;;;5031431;28;21201;-83
2024/03/08 11:38:13;;;;;;;19.53;13.00;;;6.70;95.20;;;;;;5046684;27;20700;-78
2024/03/08 11:40:42;;;;;;;16.87;11.87;;;6.90;94.60;;;;;;5055798;27;20725;-75
2024/03/08 11:43:09;;;;;;;17.10;11.13;;;6.80;94.40;;;;;;5065377;27;21061;-74
2024/03/08 11:45:37;;;;;;;17.03;12.07;;;6.80;94.40;;;;;;5055707;27;21546;-77
2024/03/08 11:48:12;;;;;;;18.77;13.13;;;6.90;94.40;;;;;;5040862;27;20633;-80
2024/03/08 11:50:43;;;;;;;18.30;13.10;;;6.90;94.60;;;;;;5039044;27;20664;-77
2024/03/08 11:53:10;;;;;;;16.97;12.30;;;6.90;96.20;;;;;;5048415;27;20631;-79
2024/03/08 11:55:42;;;;;;;17.53;13.47;;;7.10;94.80;;;;;;5045382;27;20623;-78
2024/03/08 11:58:13;;;;;;;19.50;14.10;;;7.20;94.50;;;;;;5060952;27;20637;-77
2024/03/08 12:00:44;;;;;;;15.83;11.67;;;7.50;95.70;;;;;;5025964;28;20718;-78
2024/03/08 12:03:13;;;;;;;18.87;13.90;;;7.40;94.40;;;;;;5028351;28;20730;-78
2024/03/08 12:05:40;;;;;;;18.37;12.50;;;7.30;94.20;;;;;;5025510;28;21157;-78
2024/03/08 12:08:11;;;;;;;21.20;13.37;;;7.30;94.80;;;;;;5026845;28;20627;-79
2024/03/08 12:10:46;;;;;;;19.80;13.67;;;7.50;94.50;;;;;;5027184;28;21242;-78
2024/03/08 12:13:35;;;;;;;17.17;14.07;;;7.60;94.50;;;;;;5042733;27;21195;-79
2024/03/08 12:16:08;;;;;;;19.00;12.67;;;7.50;94.30;;;;;;5025033;27;21058;-79
2024/03/08 12:18:42;;;;;;;19.30;12.37;;;7.50;93.90;;;;;;5066370;27;20623;-78
2024/03/08 12:21:14;;;;;;;20.20;13.00;;;7.50;95.00;;;;;;5058440;27;20623;-79
2024/03/08 12:23:41;;;;;;;19.43;13.10;;;7.40;95.60;;;;;;5038375;27;20632;-77
2024/03/08 12:26:14;;;;;;;20.43;14.40;;;7.40;94.00;;;;;;5032665;28;20682;-77
2024/03/08 12:28:41;;;;;;;17.97;13.77;;;7.70;93.60;;;;;;5026052;28;20630;-77
2024/03/08 12:31:10;;;;;;;20.03;14.43;;;7.60;93.80;;;;;;5029875;27;20701;-78
2024/03/08 12:33:37;;;;;;;16.10;12.37;;;7.50;93.70;;;;;;5038000;27;20631;-77
2024/03/08 12:36:07;;;;;;;18.60;13.37;;;7.40;93.70;;;;;;5030144;27;20639;-77
2024/03/08 12:38:37;;;;;;;17.93;13.80;;;7.30;93.90;;;;;;5053655;27;20753;-79
2024/03/08 12:41:09;;;;;;;13.93;10.97;;;7.30;94.30;;;;;;5044125;27;20626;-77
2024/03/08 12:43:40;;;;;;;25.50;14.60;;;7.30;94.70;;;;;;5029688;28;21035;-78
2024/03/08 12:46:08;;;;;;;16.53;12.80;;;7.30;94.20;;;;;;5033769;27;21258;-79
2024/03/08 12:48:36;;;;;;;16.90;12.90;;;6.40;97.50;;;;;;5030140;28;20612;-78
2024/03/08 12:51:05;;;;;;;20.00;13.90;;;7.10;94.40;;;;;;5026312;28;20674;-77